createdAt,value
2022-10-10T00:01:14.913Z,5.60
2022-10-10T00:03:42.591Z,4.40
2022-10-10T00:06:09.683Z,5.13
2022-10-10T00:08:36.602Z,6.00
2022-10-10T00:11:04.193Z,5.70
2022-10-10T00:13:31.131Z,4.80
2022-10-10T00:15:58.217Z,5.53
2022-10-10T00:18:25.452Z,5.13
2022-10-10T00:20:53.291Z,4.70
2022-10-10T00:23:20.589Z,5.30
2022-10-10T00:25:47.799Z,5.77
2022-10-10T00:28:14.598Z,5.47
2022-10-10T00:30:41.771Z,5.70
2022-10-10T00:33:08.654Z,5.90
2022-10-10T00:35:35.334Z,5.23
2022-10-10T00:38:02.008Z,5.70
2022-10-10T00:40:28.817Z,5.97
2022-10-10T00:42:55.657Z,4.80
2022-10-10T00:45:28.493Z,5.17
2022-10-10T00:48:13.076Z,5.00
2022-10-10T00:50:51.007Z,5.00
2022-10-10T00:53:20.680Z,5.60
2022-10-10T00:55:47.743Z,5.83
2022-10-10T00:58:15.780Z,5.03
2022-10-10T01:00:42.515Z,5.73
2022-10-10T01:03:09.617Z,5.93
2022-10-10T01:05:36.930Z,6.10
2022-10-10T01:08:05.984Z,5.80
2022-10-10T01:10:44.744Z,4.63
2022-10-10T01:13:39.324Z,5.30
2022-10-10T01:16:32.894Z,5.77
2022-10-10T01:19:14.317Z,5.53
2022-10-10T01:22:22.157Z,5.63
2022-10-10T01:25:05.315Z,5.50
2022-10-10T01:27:42.222Z,5.60
2022-10-10T01:30:10.148Z,5.70
2022-10-10T01:32:42.270Z,5.13
2022-10-10T01:35:28.408Z,5.07
2022-10-10T01:38:02.793Z,5.60
2022-10-10T01:40:53.470Z,5.57
2022-10-10T01:43:20.339Z,5.30
2022-10-10T01:45:49.370Z,5.77
2022-10-10T01:48:20.003Z,5.20
2022-10-10T01:51:37.528Z,6.23
2022-10-10T01:54:11.517Z,4.90
2022-10-10T01:56:51.549Z,5.40
2022-10-10T01:59:52.325Z,5.20
2022-10-10T02:02:25.321Z,5.13
2022-10-10T02:04:51.879Z,5.90
2022-10-10T02:07:26.746Z,5.23
2022-10-10T02:09:55.026Z,5.50
2022-10-10T02:12:23.819Z,5.30
2022-10-10T02:14:54.303Z,5.70
2022-10-10T02:17:22.065Z,5.80
2022-10-10T02:19:54.508Z,5.80
2022-10-10T02:22:23.276Z,5.50
2022-10-10T02:24:52.197Z,6.50
2022-10-10T02:27:29.934Z,5.13
2022-10-10T02:29:59.255Z,4.80
2022-10-10T02:32:31.536Z,5.73
2022-10-10T02:35:04.583Z,5.23
2022-10-10T02:37:31.854Z,5.33
2022-10-10T02:40:02.449Z,5.77
2022-10-10T02:42:29.996Z,4.93
2022-10-10T02:44:57.494Z,5.83
2022-10-10T02:47:24.249Z,5.83
2022-10-10T02:49:51.144Z,5.90
2022-10-10T02:52:18.069Z,5.97
2022-10-10T02:54:44.748Z,5.83
2022-10-10T02:57:12.222Z,5.60
2022-10-10T02:59:38.845Z,4.37
2022-10-10T03:02:06.315Z,5.10
2022-10-10T03:04:32.922Z,5.10
2022-10-10T03:06:59.677Z,5.40
2022-10-10T03:09:26.281Z,6.03
2022-10-10T03:11:53.155Z,5.30
2022-10-10T03:14:19.731Z,5.50
2022-10-10T03:16:46.339Z,6.10
2022-10-10T03:19:12.954Z,5.33
2022-10-10T03:21:39.522Z,5.03
2022-10-10T03:24:06.298Z,5.47
2022-10-10T03:26:32.986Z,5.00
2022-10-10T03:29:00.989Z,5.30
2022-10-10T03:31:27.709Z,5.60
2022-10-10T03:33:54.298Z,4.87
2022-10-10T03:36:21.090Z,5.30
2022-10-10T03:38:47.918Z,5.03
2022-10-10T03:41:14.859Z,5.03
2022-10-10T03:43:41.450Z,5.00
2022-10-10T03:46:11.345Z,5.63
2022-10-10T03:48:40.437Z,5.40
2022-10-10T03:51:07.104Z,5.00
2022-10-10T03:53:33.720Z,4.70
2022-10-10T03:56:00.267Z,5.27
2022-10-10T03:58:27.079Z,4.63
2022-10-10T04:00:59.034Z,5.33
2022-10-10T04:03:26.714Z,5.10
2022-10-10T04:05:53.631Z,5.10
2022-10-10T04:08:20.893Z,5.50
2022-10-10T04:10:52.355Z,5.30
2022-10-10T04:13:19.397Z,5.13
2022-10-10T04:15:45.969Z,5.10
2022-10-10T04:18:12.757Z,5.63
2022-10-10T04:20:39.425Z,6.30
2022-10-10T04:23:06.033Z,4.60
2022-10-10T04:25:32.966Z,5.70
2022-10-10T04:28:01.211Z,6.17
2022-10-10T04:30:32.828Z,5.80
2022-10-10T04:33:00.179Z,6.00
2022-10-10T04:35:26.891Z,5.40
2022-10-10T04:37:53.723Z,6.77
2022-10-10T04:40:25.531Z,5.17
2022-10-10T04:42:53.950Z,5.50
2022-10-10T04:45:20.652Z,5.60
2022-10-10T04:47:47.268Z,5.13
2022-10-10T04:50:14.066Z,5.03
2022-10-10T04:52:40.763Z,5.50
2022-10-10T04:55:07.719Z,5.13
2022-10-10T04:57:34.566Z,5.43
2022-10-10T05:00:01.166Z,5.57
2022-10-10T05:02:27.771Z,4.53
2022-10-10T05:04:54.665Z,5.90
2022-10-10T05:07:21.333Z,5.80
2022-10-10T05:09:47.973Z,5.90
2022-10-10T05:12:14.566Z,5.53
2022-10-10T05:14:44.670Z,5.57
2022-10-10T05:17:15.391Z,5.80
2022-10-10T05:19:42.492Z,5.10
2022-10-10T05:22:09.195Z,5.80
2022-10-10T05:24:35.796Z,6.23
2022-10-10T05:27:02.414Z,5.40
2022-10-10T05:29:29.053Z,6.30
2022-10-10T05:31:55.654Z,5.50
2022-10-10T05:34:22.592Z,5.80
2022-10-10T05:36:49.321Z,6.17
2022-10-10T05:39:16.029Z,5.50
2022-10-10T05:41:42.770Z,5.70
2022-10-10T05:44:10.077Z,6.10
2022-10-10T05:46:36.703Z,5.40
2022-10-10T05:49:03.483Z,6.40
2022-10-10T05:51:30.115Z,6.77
2022-10-10T05:53:57.384Z,7.20
2022-10-10T05:56:24.161Z,6.40
2022-10-10T05:58:51.523Z,6.20
2022-10-10T06:01:18.476Z,6.23
2022-10-10T06:03:45.127Z,6.07
2022-10-10T06:06:11.683Z,6.00
2022-10-10T06:08:38.402Z,6.07
2022-10-10T06:11:11.122Z,7.10
2022-10-10T06:13:38.724Z,6.10
2022-10-10T06:16:05.462Z,5.87
2022-10-10T06:18:32.074Z,6.70
2022-10-10T06:21:02.887Z,6.63
2022-10-10T06:23:29.704Z,6.53
2022-10-10T06:25:56.300Z,6.47
2022-10-10T06:28:23.027Z,6.73
2022-10-10T06:30:51.158Z,6.40
2022-10-10T06:33:19.206Z,5.97
2022-10-10T06:35:48.074Z,6.27
2022-10-10T06:38:16.131Z,6.60
2022-10-10T06:40:43.788Z,7.50
2022-10-10T06:43:12.556Z,7.50
2022-10-10T06:45:44.180Z,7.30
2022-10-10T06:48:13.050Z,7.00
2022-10-10T06:50:39.676Z,7.70
2022-10-10T06:53:06.917Z,8.13
2022-10-10T06:55:33.694Z,7.30
2022-10-10T06:58:00.567Z,7.53
2022-10-10T07:00:27.220Z,7.33
2022-10-10T07:02:54.143Z,7.37
2022-10-10T07:05:21.091Z,7.70
2022-10-10T07:07:47.944Z,7.40
2022-10-10T07:10:15.806Z,7.77
2022-10-10T07:12:45.040Z,6.93
2022-10-10T07:15:12.246Z,8.37
2022-10-10T07:17:38.954Z,8.00
2022-10-10T07:20:06.649Z,8.47
2022-10-10T07:22:33.555Z,8.10
2022-10-10T07:25:00.208Z,7.90
2022-10-10T07:27:26.873Z,9.10
2022-10-10T07:29:53.491Z,8.30
2022-10-10T07:32:20.549Z,8.67
2022-10-10T07:34:47.529Z,9.77
2022-10-10T07:37:14.135Z,8.67
2022-10-10T07:39:40.814Z,10.43
2022-10-10T07:42:07.423Z,9.90
2022-10-10T07:44:34.808Z,10.03
2022-10-10T07:47:01.843Z,9.80
2022-10-10T07:49:28.764Z,8.67
2022-10-10T07:51:58.877Z,9.43
2022-10-10T07:54:28.530Z,9.97
2022-10-10T07:56:55.280Z,10.80
2022-10-10T07:59:22.732Z,10.03
2022-10-10T08:01:50.072Z,10.60
2022-10-10T08:04:17.365Z,9.67
2022-10-10T08:06:44.465Z,8.57
2022-10-10T08:09:11.284Z,9.57
2022-10-10T08:11:37.926Z,8.67
2022-10-10T08:14:04.575Z,9.10
2022-10-10T08:16:31.530Z,9.30
2022-10-10T08:18:58.128Z,8.77
2022-10-10T08:21:24.831Z,9.53
2022-10-10T08:23:51.422Z,8.70
2022-10-10T08:26:20.216Z,7.80
2022-10-10T08:28:48.435Z,7.87
2022-10-10T08:31:17.609Z,8.83
2022-10-10T08:33:45.967Z,8.13
2022-10-10T08:36:16.396Z,7.20
2022-10-10T08:38:43.435Z,8.90
2022-10-10T08:41:29.248Z,8.70
2022-10-10T08:44:00.996Z,7.00
2022-10-10T08:46:33.597Z,7.33
2022-10-10T08:49:13.713Z,7.10
2022-10-10T08:51:42.540Z,6.90
2022-10-10T08:54:11.273Z,5.97
2022-10-10T08:56:39.421Z,6.90
2022-10-10T08:59:20.310Z,6.93
2022-10-10T09:02:17.859Z,5.73
2022-10-10T09:04:36.411Z,5.67
2022-10-10T09:07:24.815Z,6.10
2022-10-10T09:09:58.006Z,5.70
2022-10-10T09:12:32.620Z,5.10
2022-10-10T09:15:21.559Z,4.83
2022-10-10T09:18:12.780Z,4.83
2022-10-10T09:21:07.985Z,5.20
2022-10-10T09:23:43.609Z,5.03
2022-10-10T09:26:14.243Z,5.33
2022-10-10T09:28:55.547Z,5.00
2022-10-10T09:31:51.355Z,4.43
2022-10-10T09:34:23.945Z,4.43
2022-10-10T09:36:51.040Z,4.83
2022-10-10T09:40:01.878Z,4.83
2022-10-10T09:42:35.819Z,5.37
2022-10-10T09:45:03.778Z,4.70
2022-10-10T09:47:30.458Z,4.20
2022-10-10T09:49:58.867Z,3.93
2022-10-10T09:52:31.656Z,4.07
2022-10-10T09:55:05.506Z,4.77
2022-10-10T09:57:38.182Z,4.93
2022-10-10T10:00:27.797Z,4.80
2022-10-10T10:03:24.021Z,5.63
2022-10-10T10:06:01.672Z,4.77
2022-10-10T10:08:31.575Z,5.00
2022-10-10T10:10:59.792Z,4.27
2022-10-10T10:13:36.039Z,4.23
2022-10-10T10:16:07.068Z,3.70
2022-10-10T10:18:42.621Z,4.40
2022-10-10T10:21:13.700Z,3.90
2022-10-10T10:23:52.377Z,4.20
2022-10-10T10:26:43.716Z,4.20
2022-10-10T10:29:28.880Z,4.33
2022-10-10T10:32:22.214Z,3.93
2022-10-10T10:35:03.867Z,4.23
2022-10-10T10:38:08.643Z,4.87
2022-10-10T10:41:03.942Z,5.30
2022-10-10T10:43:49.236Z,4.73
2022-10-10T10:46:28.019Z,4.03
2022-10-10T10:48:57.312Z,3.90
2022-10-10T10:51:40.717Z,4.50
2022-10-10T10:54:28.932Z,4.13
2022-10-10T10:57:32.869Z,4.30
2022-10-10T11:00:26.322Z,4.53
2022-10-10T11:05:23.088Z,5.20
2022-10-10T11:06:17.322Z,5.40
2022-10-10T11:08:57.447Z,4.77
2022-10-10T11:11:39.011Z,4.37
2022-10-10T11:14:38.610Z,4.73
2022-10-10T11:17:20.111Z,3.90
2022-10-10T11:20:24.763Z,4.23
2022-10-10T11:23:09.242Z,4.40
2022-10-10T11:25:51.698Z,3.90
2022-10-10T11:28:21.270Z,3.40
2022-10-10T11:31:03.109Z,4.10
2022-10-10T11:33:36.431Z,4.57
2022-10-10T11:36:12.375Z,3.90
2022-10-10T11:38:44.912Z,4.50
2022-10-10T11:41:24.254Z,3.60
2022-10-10T11:44:10.164Z,3.73
2022-10-10T11:46:45.697Z,3.80
2022-10-10T11:49:22.623Z,3.80
2022-10-10T11:52:15.135Z,3.27
2022-10-10T11:54:54.043Z,4.07
2022-10-10T11:57:29.803Z,3.40
2022-10-10T12:00:04.510Z,3.20
2022-10-10T12:02:36.089Z,3.53
2022-10-10T12:05:06.111Z,3.80
2022-10-10T12:07:40.184Z,3.43
2022-10-10T12:10:11.697Z,3.10
2022-10-10T12:12:45.225Z,3.50
2022-10-10T12:15:35.187Z,3.70
2022-10-10T12:18:04.824Z,2.57
2022-10-10T12:20:34.815Z,3.20
2022-10-10T12:23:13.507Z,3.07
2022-10-10T12:25:45.443Z,2.63
2022-10-10T12:28:14.922Z,3.33
2022-10-10T12:31:07.529Z,2.80
2022-10-10T12:33:34.095Z,3.00
2022-10-10T12:36:19.158Z,2.93
2022-10-10T12:39:08.039Z,3.00
2022-10-10T12:41:55.251Z,3.10
2022-10-10T12:44:34.305Z,2.97
2022-10-10T12:47:16.078Z,3.27
2022-10-10T12:49:59.593Z,3.33
2022-10-10T12:52:52.631Z,2.70
2022-10-10T12:55:32.397Z,2.97
2022-10-10T12:58:03.172Z,2.97
2022-10-10T13:00:41.560Z,3.67
2022-10-10T13:03:24.461Z,3.47
2022-10-10T13:05:52.216Z,3.20
2022-10-10T13:08:24.167Z,3.30
2022-10-10T13:11:12.476Z,3.60
2022-10-10T13:13:40.740Z,3.33
2022-10-10T13:16:13.103Z,3.40
2022-10-10T13:18:49.885Z,3.50
2022-10-10T13:21:22.138Z,3.20
2022-10-10T13:26:43.965Z,4.10
2022-10-10T13:29:35.394Z,3.73
2022-10-10T13:32:06.067Z,3.97
2022-10-10T13:34:40.110Z,3.60
2022-10-10T13:37:07.157Z,3.63
2022-10-10T13:39:37.284Z,3.63
2022-10-10T13:42:05.975Z,3.27
2022-10-10T13:44:47.655Z,3.80
2022-10-10T13:47:42.049Z,4.40
2022-10-10T13:50:43.466Z,3.43
2022-10-10T13:53:31.711Z,3.00
2022-10-10T13:56:08.669Z,3.87
2022-10-10T13:58:41.701Z,3.47
2022-10-10T14:01:32.483Z,3.77
2022-10-10T14:04:24.658Z,2.90
2022-10-10T14:06:57.160Z,3.53
2022-10-10T14:09:41.214Z,3.90
2022-10-10T14:12:16.981Z,3.10
2022-10-10T14:14:49.348Z,3.73
2022-10-10T14:17:17.092Z,3.53
2022-10-10T14:19:45.703Z,3.57
2022-10-10T14:22:12.661Z,3.30
2022-10-10T14:24:39.337Z,3.10
2022-10-10T14:27:26.350Z,3.07
2022-10-10T14:29:54.675Z,3.83
2022-10-10T14:32:22.289Z,3.37
2022-10-10T14:34:49.069Z,3.47
2022-10-10T14:37:23.316Z,3.40
2022-10-10T14:39:50.073Z,3.13
2022-10-10T14:42:19.091Z,3.50
2022-10-10T14:44:45.926Z,3.40
2022-10-10T14:47:22.191Z,3.87
2022-10-10T14:49:49.430Z,4.00
2022-10-10T14:52:16.530Z,4.50
2022-10-10T14:54:43.253Z,4.33
2022-10-10T14:57:13.150Z,4.37
2022-10-10T14:59:47.196Z,4.20
2022-10-10T15:02:20.759Z,3.63
2022-10-10T15:04:48.142Z,5.40
2022-10-10T15:07:16.002Z,4.13
2022-10-10T15:10:18.895Z,4.53
2022-10-10T15:12:36.846Z,4.17
2022-10-10T15:15:04.127Z,4.87
2022-10-10T15:17:33.726Z,5.60
2022-10-10T15:20:01.769Z,4.87
2022-10-10T15:22:30.306Z,4.83
2022-10-10T15:24:57.132Z,5.77
2022-10-10T15:27:24.038Z,5.10
2022-10-10T15:29:50.752Z,5.00
2022-10-10T15:32:17.422Z,6.07
2022-10-10T15:34:44.074Z,5.93
2022-10-10T15:37:10.849Z,6.63
2022-10-10T15:39:37.843Z,5.67
2022-10-10T15:42:12.690Z,6.47
2022-10-10T15:44:51.645Z,6.20
2022-10-10T15:47:19.857Z,5.43
2022-10-10T15:49:46.826Z,5.80
2022-10-10T15:52:13.624Z,5.20
2022-10-10T15:54:40.750Z,5.53
2022-10-10T15:57:07.651Z,5.87
2022-10-10T15:59:36.827Z,5.97
2022-10-10T16:02:05.919Z,5.23
2022-10-10T16:04:32.575Z,5.37
2022-10-10T16:07:24.075Z,6.00
2022-10-10T16:09:46.118Z,6.47
2022-10-10T16:12:12.772Z,5.87
2022-10-10T16:14:39.433Z,6.20
2022-10-10T16:17:06.031Z,6.50
2022-10-10T16:19:32.648Z,6.30
2022-10-10T16:21:59.479Z,7.57
2022-10-10T16:24:26.206Z,7.20
2022-10-10T16:26:52.828Z,7.57
2022-10-10T16:29:20.619Z,6.40
2022-10-10T16:31:47.630Z,4.43
2022-10-10T16:34:15.892Z,3.73
2022-10-10T16:36:42.594Z,2.63
2022-10-10T16:39:09.328Z,2.20
2022-10-10T16:41:47.934Z,2.37
2022-10-10T16:44:16.000Z,2.13
2022-10-10T16:46:42.787Z,2.10
2022-10-10T16:49:09.831Z,2.60
2022-10-10T16:51:37.317Z,2.47
2022-10-10T16:54:05.709Z,1.90
2022-10-10T16:56:32.770Z,2.47
2022-10-10T16:58:59.630Z,2.20
2022-10-10T17:01:26.513Z,2.20
2022-10-10T17:03:53.579Z,2.13
2022-10-10T17:06:22.899Z,1.97
2022-10-10T17:08:51.556Z,2.20
2022-10-10T17:11:20.576Z,2.00
2022-10-10T17:13:48.354Z,2.43
2022-10-10T17:19:05.141Z,1.93
2022-10-10T17:21:32.036Z,1.93
2022-10-10T17:23:58.732Z,2.63
2022-10-10T17:26:27.703Z,1.97
2022-10-10T17:28:56.078Z,2.27
2022-10-10T17:31:23.380Z,2.00
2022-10-10T17:33:53.918Z,2.10
2022-10-10T17:36:23.913Z,2.10
2022-10-10T17:38:50.902Z,2.67
2022-10-10T17:41:21.570Z,1.87
2022-10-10T17:43:48.577Z,2.60
2022-10-10T17:46:35.287Z,2.40
2022-10-10T17:49:04.314Z,2.43
2022-10-10T17:51:31.160Z,2.07
2022-10-10T17:54:02.706Z,3.23
2022-10-10T17:56:29.649Z,3.40
2022-10-10T17:58:56.382Z,1.97
2022-10-10T18:01:23.344Z,3.20
2022-10-10T18:03:51.154Z,2.43
2022-10-10T18:06:21.132Z,2.47
2022-10-10T18:08:49.091Z,2.23
2022-10-10T18:11:19.031Z,2.87
2022-10-10T18:13:46.564Z,2.63
2022-10-10T18:16:16.318Z,2.80
2022-10-10T18:18:49.639Z,2.40
2022-10-10T18:21:19.149Z,3.77
2022-10-10T18:23:45.819Z,2.93
2022-10-10T18:26:15.218Z,2.73
2022-10-10T18:28:42.966Z,3.30
2022-10-10T18:31:14.279Z,3.67
2022-10-10T18:33:42.362Z,3.10
2022-10-10T18:36:10.184Z,3.33
2022-10-10T18:38:37.741Z,3.80
2022-10-10T18:41:11.093Z,2.67
2022-10-10T18:43:39.434Z,3.10
2022-10-10T18:46:08.135Z,3.43
2022-10-10T18:48:35.877Z,2.53
2022-10-10T18:51:07.228Z,3.10
2022-10-10T18:53:38.767Z,3.17
2022-10-10T18:56:06.455Z,3.03
2022-10-10T18:58:35.115Z,4.03
2022-10-10T19:01:08.658Z,2.57
2022-10-10T19:03:37.425Z,3.17
2022-10-10T19:06:06.699Z,4.03
2022-10-10T19:08:33.655Z,3.63
2022-10-10T19:11:01.345Z,3.30
2022-10-10T19:13:28.561Z,3.10
2022-10-10T19:15:55.260Z,3.40
2022-10-10T19:18:22.637Z,3.30
2022-10-10T19:20:49.641Z,2.87
2022-10-10T19:23:16.339Z,3.27
2022-10-10T19:25:44.353Z,2.80
2022-10-10T19:28:11.009Z,2.60
2022-10-10T19:30:39.511Z,2.83
2022-10-10T19:33:06.610Z,3.27
2022-10-10T19:35:48.262Z,3.00
2022-10-10T19:38:17.995Z,2.87
2022-10-10T19:40:45.834Z,3.50
2022-10-10T19:43:13.077Z,3.23
2022-10-10T19:45:44.600Z,3.17
2022-10-10T19:48:11.303Z,4.40
2022-10-10T19:50:40.102Z,3.10
2022-10-10T19:53:07.627Z,3.83
2022-10-10T19:55:34.539Z,4.13
2022-10-10T19:58:01.324Z,4.10
2022-10-10T20:00:28.290Z,4.53
2022-10-10T20:02:55.107Z,5.13
2022-10-10T20:05:21.979Z,3.97
2022-10-10T20:07:52.277Z,3.80
2022-10-10T20:10:19.938Z,3.47
2022-10-10T20:12:47.288Z,5.00
2022-10-10T20:15:14.015Z,3.93
2022-10-10T20:17:41.182Z,3.20
2022-10-10T20:20:08.290Z,3.97
2022-10-10T20:22:35.019Z,4.00
2022-10-10T20:25:02.184Z,4.10
2022-10-10T20:27:31.154Z,3.93
2022-10-10T20:29:58.926Z,5.20
2022-10-10T20:32:25.943Z,4.23
2022-10-10T20:34:52.539Z,4.27
2022-10-10T20:37:19.192Z,3.53
2022-10-10T20:39:46.875Z,3.50
2022-10-10T20:42:13.537Z,4.30
2022-10-10T20:44:40.223Z,4.47
2022-10-10T20:47:06.846Z,4.17
2022-10-10T20:49:33.713Z,4.47
2022-10-10T20:52:00.389Z,4.37
2022-10-10T20:54:27.125Z,4.33
2022-10-10T20:56:53.738Z,4.03
2022-10-10T20:59:21.307Z,3.43
2022-10-10T21:01:48.365Z,4.30
2022-10-10T21:04:15.176Z,3.87
2022-10-10T21:06:42.759Z,3.57
2022-10-10T21:09:12.168Z,5.00
2022-10-10T21:11:39.602Z,4.30
2022-10-10T21:14:06.576Z,4.30
2022-10-10T21:16:36.337Z,4.60
2022-10-10T21:19:05.192Z,3.57
2022-10-10T21:21:34.823Z,4.07
2022-10-10T21:24:02.623Z,3.50
2022-10-10T21:26:29.828Z,3.80
2022-10-10T21:28:57.186Z,3.70
2022-10-10T21:31:26.970Z,3.77
2022-10-10T21:33:54.131Z,3.47
2022-10-10T21:36:22.894Z,3.03
2022-10-10T21:38:49.484Z,3.70
2022-10-10T21:41:21.821Z,3.40
2022-10-10T21:43:52.689Z,4.20
2022-10-10T21:46:24.359Z,4.13
2022-10-10T21:48:52.345Z,3.53
2022-10-10T21:51:20.156Z,4.23
2022-10-10T21:53:47.602Z,5.00
2022-10-10T21:56:14.405Z,4.90
2022-10-10T21:58:43.097Z,4.50
2022-10-10T22:01:18.716Z,4.07
2022-10-10T22:03:47.523Z,4.03
2022-10-10T22:06:19.864Z,4.67
2022-10-10T22:08:47.656Z,3.90
2022-10-10T22:11:20.001Z,4.00
2022-10-10T22:13:47.248Z,4.20
2022-10-10T22:16:14.638Z,5.00
2022-10-10T22:18:42.001Z,4.77
2022-10-10T22:21:12.550Z,4.87
2022-10-10T22:23:39.752Z,4.67
2022-10-10T22:26:11.427Z,4.73
2022-10-10T22:28:38.641Z,4.67
2022-10-10T22:31:09.971Z,4.80
2022-10-10T22:33:36.699Z,4.70
2022-10-10T22:36:04.924Z,5.03
2022-10-10T22:38:32.427Z,4.47
2022-10-10T22:40:59.227Z,5.87
2022-10-10T22:43:27.184Z,4.63
2022-10-10T22:45:54.370Z,5.37
2022-10-10T22:48:21.225Z,4.73
2022-10-10T22:50:48.137Z,4.30
2022-10-10T22:53:14.793Z,5.00
2022-10-10T22:55:41.577Z,4.70
2022-10-10T22:58:09.013Z,4.60
2022-10-10T23:00:35.876Z,4.90
2022-10-10T23:03:02.547Z,4.63
2022-10-10T23:05:29.193Z,4.40
2022-10-10T23:07:56.163Z,4.57
2022-10-10T23:10:22.770Z,4.50
2022-10-10T23:12:49.422Z,4.30
2022-10-10T23:15:16.058Z,4.47
2022-10-10T23:17:42.749Z,5.07
2022-10-10T23:20:09.881Z,4.00
2022-10-10T23:22:36.553Z,4.40
2022-10-10T23:25:03.456Z,4.83
2022-10-10T23:27:30.163Z,4.67
2022-10-10T23:29:57.055Z,4.30
2022-10-10T23:32:26.719Z,4.67
2022-10-10T23:34:53.322Z,4.87
2022-10-10T23:37:20.138Z,4.23
2022-10-10T23:39:46.836Z,4.60
2022-10-10T23:42:13.444Z,4.00
2022-10-10T23:44:40.154Z,6.00
2022-10-10T23:47:06.829Z,4.53
2022-10-10T23:49:33.447Z,5.37
2022-10-10T23:52:00.104Z,4.80
2022-10-10T23:54:26.683Z,5.13
2022-10-10T23:56:53.354Z,5.00
2022-10-10T23:59:19.968Z,5.13
